sensor_id;sensor_type;location;lat;lon;timestamp;P1;durP1;ratioP1;P2;durP2;ratioP2
52033;SDS011;38045;52.988;6.536;2023-04-08T00:00:06;9.98;;;7.03;;
52033;SDS011;38045;52.988;6.536;2023-04-08T00:02:32;9.77;;;6.57;;
52033;SDS011;38045;52.988;6.536;2023-04-08T00:04:58;7.45;;;6.38;;
52033;SDS011;38045;52.988;6.536;2023-04-08T00:07:24;8.85;;;6.60;;
52033;SDS011;38045;52.988;6.536;2023-04-08T00:09:49;9.98;;;7.32;;
52033;SDS011;38045;52.988;6.536;2023-04-08T00:12:15;7.80;;;6.70;;
52033;SDS011;38045;52.988;6.536;2023-04-08T00:14:40;9.23;;;6.75;;
52033;SDS011;38045;52.988;6.536;2023-04-08T00:17:06;10.73;;;7.43;;
52033;SDS011;38045;52.988;6.536;2023-04-08T00:19:32;9.13;;;8.13;;
52033;SDS011;38045;52.988;6.536;2023-04-08T00:21:58;12.38;;;6.88;;
52033;SDS011;38045;52.988;6.536;2023-04-08T00:24:24;8.95;;;7.03;;
52033;SDS011;38045;52.988;6.536;2023-04-08T00:26:50;8.77;;;7.00;;
52033;SDS011;38045;52.988;6.536;2023-04-08T00:29:16;10.63;;;7.75;;
52033;SDS011;38045;52.988;6.536;2023-04-08T00:31:41;11.60;;;7.25;;
52033;SDS011;38045;52.988;6.536;2023-04-08T00:34:07;8.52;;;6.95;;
52033;SDS011;38045;52.988;6.536;2023-04-08T00:36:33;14.25;;;9.15;;
52033;SDS011;38045;52.988;6.536;2023-04-08T00:39:00;9.73;;;7.88;;
52033;SDS011;38045;52.988;6.536;2023-04-08T00:41:26;11.18;;;6.88;;
52033;SDS011;38045;52.988;6.536;2023-04-08T00:43:52;9.98;;;7.93;;
52033;SDS011;38045;52.988;6.536;2023-04-08T00:46:18;11.43;;;8.27;;
52033;SDS011;38045;52.988;6.536;2023-04-08T00:48:45;9.45;;;8.48;;
52033;SDS011;38045;52.988;6.536;2023-04-08T00:51:11;10.68;;;8.88;;
52033;SDS011;38045;52.988;6.536;2023-04-08T00:53:37;10.15;;;8.73;;
52033;SDS011;38045;52.988;6.536;2023-04-08T00:56:02;10.25;;;9.13;;
52033;SDS011;38045;52.988;6.536;2023-04-08T00:58:28;13.77;;;9.13;;
52033;SDS011;38045;52.988;6.536;2023-04-08T01:01:04;12.20;;;8.82;;
52033;SDS011;38045;52.988;6.536;2023-04-08T01:06:36;10.25;;;8.10;;
52033;SDS011;38045;52.988;6.536;2023-04-08T01:09:07;12.00;;;9.82;;
52033;SDS011;38045;52.988;6.536;2023-04-08T01:11:34;16.25;;;9.35;;
52033;SDS011;38045;52.988;6.536;2023-04-08T01:14:05;11.32;;;9.65;;
52033;SDS011;38045;52.988;6.536;2023-04-08T01:16:34;8.40;;;7.40;;
52033;SDS011;38045;52.988;6.536;2023-04-08T01:21:30;13.05;;;11.23;;
52033;SDS011;38045;52.988;6.536;2023-04-08T01:24:20;11.80;;;10.43;;
52033;SDS011;38045;52.988;6.536;2023-04-08T01:26:51;11.27;;;9.70;;
52033;SDS011;38045;52.988;6.536;2023-04-08T01:29:18;14.77;;;11.25;;
52033;SDS011;38045;52.988;6.536;2023-04-08T01:31:44;16.00;;;10.75;;
52033;SDS011;38045;52.988;6.536;2023-04-08T01:34:11;13.00;;;10.98;;
52033;SDS011;38045;52.988;6.536;2023-04-08T01:36:39;13.82;;;10.60;;
52033;SDS011;38045;52.988;6.536;2023-04-08T01:39:08;15.43;;;10.50;;
52033;SDS011;38045;52.988;6.536;2023-04-08T01:41:35;17.45;;;11.38;;
52033;SDS011;38045;52.988;6.536;2023-04-08T01:44:03;15.40;;;10.60;;
52033;SDS011;38045;52.988;6.536;2023-04-08T01:46:29;13.80;;;11.30;;
52033;SDS011;38045;52.988;6.536;2023-04-08T01:48:56;12.73;;;10.20;;
52033;SDS011;38045;52.988;6.536;2023-04-08T01:51:23;13.13;;;11.70;;
52033;SDS011;38045;52.988;6.536;2023-04-08T01:53:51;14.60;;;12.02;;
52033;SDS011;38045;52.988;6.536;2023-04-08T01:56:16;12.63;;;10.98;;
52033;SDS011;38045;52.988;6.536;2023-04-08T01:58:47;14.23;;;12.40;;
52033;SDS011;38045;52.988;6.536;2023-04-08T02:01:17;19.33;;;13.80;;
52033;SDS011;38045;52.988;6.536;2023-04-08T02:03:46;14.88;;;10.90;;
52033;SDS011;38045;52.988;6.536;2023-04-08T02:06:16;15.13;;;11.32;;
52033;SDS011;38045;52.988;6.536;2023-04-08T02:08:41;16.23;;;13.18;;
52033;SDS011;38045;52.988;6.536;2023-04-08T02:11:07;16.42;;;11.48;;
52033;SDS011;38045;52.988;6.536;2023-04-08T02:13:32;16.58;;;12.68;;
52033;SDS011;38045;52.988;6.536;2023-04-08T02:16:02;17.67;;;12.57;;
52033;SDS011;38045;52.988;6.536;2023-04-08T02:18:49;14.27;;;12.75;;
52033;SDS011;38045;52.988;6.536;2023-04-08T02:21:41;20.17;;;16.30;;
52033;SDS011;38045;52.988;6.536;2023-04-08T02:24:11;16.25;;;11.27;;
52033;SDS011;38045;52.988;6.536;2023-04-08T02:26:39;14.40;;;12.13;;
52033;SDS011;38045;52.988;6.536;2023-04-08T02:29:08;13.47;;;11.20;;
52033;SDS011;38045;52.988;6.536;2023-04-08T02:31:36;15.68;;;12.20;;
52033;SDS011;38045;52.988;6.536;2023-04-08T02:34:05;17.20;;;12.70;;
52033;SDS011;38045;52.988;6.536;2023-04-08T02:36:34;16.65;;;13.82;;
52033;SDS011;38045;52.988;6.536;2023-04-08T02:39:00;15.63;;;12.15;;
52033;SDS011;38045;52.988;6.536;2023-04-08T02:41:27;17.92;;;14.90;;
52033;SDS011;38045;52.988;6.536;2023-04-08T02:43:54;18.80;;;11.98;;
52033;SDS011;38045;52.988;6.536;2023-04-08T02:46:20;17.02;;;14.00;;
52033;SDS011;38045;52.988;6.536;2023-04-08T02:48:45;15.65;;;13.65;;
52033;SDS011;38045;52.988;6.536;2023-04-08T02:51:11;20.25;;;14.38;;
52033;SDS011;38045;52.988;6.536;2023-04-08T02:53:37;18.13;;;14.20;;
52033;SDS011;38045;52.988;6.536;2023-04-08T02:56:02;19.27;;;14.48;;
52033;SDS011;38045;52.988;6.536;2023-04-08T02:58:28;20.85;;;15.95;;
52033;SDS011;38045;52.988;6.536;2023-04-08T03:00:54;16.70;;;12.75;;
52033;SDS011;38045;52.988;6.536;2023-04-08T03:03:20;19.25;;;14.60;;
52033;SDS011;38045;52.988;6.536;2023-04-08T03:05:52;16.92;;;13.00;;
52033;SDS011;38045;52.988;6.536;2023-04-08T03:08:18;16.30;;;13.52;;
52033;SDS011;38045;52.988;6.536;2023-04-08T03:10:44;24.60;;;17.92;;
52033;SDS011;38045;52.988;6.536;2023-04-08T03:13:09;20.65;;;14.65;;
52033;SDS011;38045;52.988;6.536;2023-04-08T03:15:35;21.48;;;15.75;;
52033;SDS011;38045;52.988;6.536;2023-04-08T03:18:01;20.50;;;15.00;;
52033;SDS011;38045;52.988;6.536;2023-04-08T03:20:27;20.42;;;16.60;;
52033;SDS011;38045;52.988;6.536;2023-04-08T03:22:53;20.65;;;14.65;;
52033;SDS011;38045;52.988;6.536;2023-04-08T03:25:19;19.40;;;15.02;;
52033;SDS011;38045;52.988;6.536;2023-04-08T03:27:44;16.70;;;14.75;;
52033;SDS011;38045;52.988;6.536;2023-04-08T03:30:10;18.30;;;15.98;;
52033;SDS011;38045;52.988;6.536;2023-04-08T03:32:35;24.13;;;16.50;;
52033;SDS011;38045;52.988;6.536;2023-04-08T03:35:01;16.40;;;14.43;;
52033;SDS011;38045;52.988;6.536;2023-04-08T03:37:27;21.50;;;17.65;;
52033;SDS011;38045;52.988;6.536;2023-04-08T03:39:53;22.33;;;15.40;;
52033;SDS011;38045;52.988;6.536;2023-04-08T03:42:19;19.65;;;16.02;;
52033;SDS011;38045;52.988;6.536;2023-04-08T03:44:45;19.67;;;15.93;;
52033;SDS011;38045;52.988;6.536;2023-04-08T03:47:10;23.65;;;17.30;;
52033;SDS011;38045;52.988;6.536;2023-04-08T03:49:36;19.42;;;16.30;;
52033;SDS011;38045;52.988;6.536;2023-04-08T03:52:01;20.80;;;15.95;;
52033;SDS011;38045;52.988;6.536;2023-04-08T03:54:27;20.85;;;15.10;;
52033;SDS011;38045;52.988;6.536;2023-04-08T03:56:53;21.08;;;15.85;;
52033;SDS011;38045;52.988;6.536;2023-04-08T03:59:19;19.15;;;14.23;;
52033;SDS011;38045;52.988;6.536;2023-04-08T04:01:44;19.35;;;15.70;;
52033;SDS011;38045;52.988;6.536;2023-04-08T04:04:11;22.67;;;17.13;;
52033;SDS011;38045;52.988;6.536;2023-04-08T04:06:37;19.95;;;17.33;;
52033;SDS011;38045;52.988;6.536;2023-04-08T04:09:02;21.25;;;14.60;;
52033;SDS011;38045;52.988;6.536;2023-04-08T04:11:28;18.13;;;16.05;;
52033;SDS011;38045;52.988;6.536;2023-04-08T04:13:53;23.05;;;17.48;;
52033;SDS011;38045;52.988;6.536;2023-04-08T04:16:19;20.52;;;16.58;;
52033;SDS011;38045;52.988;6.536;2023-04-08T04:18:45;23.50;;;16.63;;
52033;SDS011;38045;52.988;6.536;2023-04-08T04:21:10;21.13;;;17.20;;
52033;SDS011;38045;52.988;6.536;2023-04-08T04:23:36;23.20;;;17.45;;
52033;SDS011;38045;52.988;6.536;2023-04-08T04:26:06;26.55;;;18.48;;
52033;SDS011;38045;52.988;6.536;2023-04-08T04:28:32;25.35;;;17.38;;
52033;SDS011;38045;52.988;6.536;2023-04-08T04:30:58;21.88;;;17.50;;
52033;SDS011;38045;52.988;6.536;2023-04-08T04:33:23;24.85;;;18.90;;
52033;SDS011;38045;52.988;6.536;2023-04-08T04:35:49;19.85;;;15.70;;
52033;SDS011;38045;52.988;6.536;2023-04-08T04:38:15;23.35;;;18.45;;
52033;SDS011;38045;52.988;6.536;2023-04-08T04:40:41;24.15;;;19.25;;
52033;SDS011;38045;52.988;6.536;2023-04-08T04:43:08;29.40;;;20.98;;
52033;SDS011;38045;52.988;6.536;2023-04-08T04:45:33;23.50;;;16.15;;
52033;SDS011;38045;52.988;6.536;2023-04-08T04:47:59;26.77;;;16.13;;
52033;SDS011;38045;52.988;6.536;2023-04-08T04:50:25;32.75;;;18.90;;
52033;SDS011;38045;52.988;6.536;2023-04-08T04:52:50;21.45;;;17.70;;
52033;SDS011;38045;52.988;6.536;2023-04-08T04:55:16;24.17;;;18.83;;
52033;SDS011;38045;52.988;6.536;2023-04-08T04:57:42;22.98;;;17.85;;
52033;SDS011;38045;52.988;6.536;2023-04-08T05:00:08;23.90;;;16.90;;
52033;SDS011;38045;52.988;6.536;2023-04-08T05:02:34;23.67;;;18.17;;
52033;SDS011;38045;52.988;6.536;2023-04-08T05:05:00;22.58;;;17.52;;
52033;SDS011;38045;52.988;6.536;2023-04-08T05:07:26;26.90;;;19.02;;
52033;SDS011;38045;52.988;6.536;2023-04-08T05:09:52;26.70;;;19.13;;
52033;SDS011;38045;52.988;6.536;2023-04-08T05:12:18;24.00;;;18.40;;
52033;SDS011;38045;52.988;6.536;2023-04-08T05:14:46;28.10;;;19.07;;
52033;SDS011;38045;52.988;6.536;2023-04-08T05:17:12;25.67;;;19.13;;
52033;SDS011;38045;52.988;6.536;2023-04-08T05:19:38;24.85;;;19.67;;
52033;SDS011;38045;52.988;6.536;2023-04-08T05:22:03;23.80;;;18.52;;
52033;SDS011;38045;52.988;6.536;2023-04-08T05:24:29;26.15;;;18.17;;
52033;SDS011;38045;52.988;6.536;2023-04-08T05:26:55;25.13;;;18.67;;
52033;SDS011;38045;52.988;6.536;2023-04-08T05:29:22;22.63;;;17.30;;
52033;SDS011;38045;52.988;6.536;2023-04-08T05:31:47;26.15;;;22.13;;
52033;SDS011;38045;52.988;6.536;2023-04-08T05:34:13;25.70;;;18.85;;
52033;SDS011;38045;52.988;6.536;2023-04-08T05:36:39;26.85;;;20.30;;
52033;SDS011;38045;52.988;6.536;2023-04-08T05:39:05;31.60;;;21.58;;
52033;SDS011;38045;52.988;6.536;2023-04-08T05:41:31;29.73;;;19.65;;
52033;SDS011;38045;52.988;6.536;2023-04-08T05:43:56;30.38;;;22.27;;
52033;SDS011;38045;52.988;6.536;2023-04-08T05:46:22;29.98;;;21.52;;
52033;SDS011;38045;52.988;6.536;2023-04-08T05:48:47;28.27;;;20.23;;
52033;SDS011;38045;52.988;6.536;2023-04-08T05:51:13;25.33;;;19.25;;
52033;SDS011;38045;52.988;6.536;2023-04-08T05:53:40;28.08;;;19.88;;
52033;SDS011;38045;52.988;6.536;2023-04-08T05:56:05;27.33;;;19.27;;
52033;SDS011;38045;52.988;6.536;2023-04-08T05:58:31;25.80;;;19.10;;
52033;SDS011;38045;52.988;6.536;2023-04-08T06:00:57;26.95;;;20.40;;
52033;SDS011;38045;52.988;6.536;2023-04-08T06:03:22;30.05;;;20.60;;
52033;SDS011;38045;52.988;6.536;2023-04-08T06:05:48;27.55;;;17.83;;
52033;SDS011;38045;52.988;6.536;2023-04-08T06:08:13;26.05;;;19.33;;
52033;SDS011;38045;52.988;6.536;2023-04-08T06:10:39;27.45;;;21.10;;
52033;SDS011;38045;52.988;6.536;2023-04-08T06:13:05;28.67;;;21.40;;
52033;SDS011;38045;52.988;6.536;2023-04-08T06:15:31;25.63;;;20.27;;
52033;SDS011;38045;52.988;6.536;2023-04-08T06:17:56;27.60;;;20.30;;
52033;SDS011;38045;52.988;6.536;2023-04-08T06:20:22;25.88;;;18.30;;
52033;SDS011;38045;52.988;6.536;2023-04-08T06:22:47;29.33;;;20.88;;
52033;SDS011;38045;52.988;6.536;2023-04-08T06:25:13;22.30;;;18.92;;
52033;SDS011;38045;52.988;6.536;2023-04-08T06:27:39;33.03;;;21.75;;
52033;SDS011;38045;52.988;6.536;2023-04-08T06:30:04;30.17;;;23.38;;
52033;SDS011;38045;52.988;6.536;2023-04-08T06:32:31;27.77;;;19.40;;
52033;SDS011;38045;52.988;6.536;2023-04-08T06:34:56;28.23;;;21.20;;
52033;SDS011;38045;52.988;6.536;2023-04-08T06:37:22;24.65;;;19.27;;
52033;SDS011;38045;52.988;6.536;2023-04-08T06:39:48;28.75;;;19.55;;
52033;SDS011;38045;52.988;6.536;2023-04-08T06:42:14;28.70;;;19.60;;
52033;SDS011;38045;52.988;6.536;2023-04-08T06:44:40;28.48;;;20.63;;
52033;SDS011;38045;52.988;6.536;2023-04-08T06:47:05;28.60;;;21.77;;
52033;SDS011;38045;52.988;6.536;2023-04-08T06:49:31;31.13;;;20.30;;
52033;SDS011;38045;52.988;6.536;2023-04-08T06:51:56;26.48;;;19.70;;
52033;SDS011;38045;52.988;6.536;2023-04-08T06:54:22;30.88;;;23.27;;
52033;SDS011;38045;52.988;6.536;2023-04-08T06:56:47;30.45;;;22.42;;
52033;SDS011;38045;52.988;6.536;2023-04-08T06:59:13;31.02;;;21.98;;
52033;SDS011;38045;52.988;6.536;2023-04-08T07:01:39;33.25;;;24.08;;
52033;SDS011;38045;52.988;6.536;2023-04-08T07:04:05;27.13;;;21.17;;
52033;SDS011;38045;52.988;6.536;2023-04-08T07:06:31;27.50;;;20.60;;
52033;SDS011;38045;52.988;6.536;2023-04-08T07:08:56;31.00;;;24.10;;
52033;SDS011;38045;52.988;6.536;2023-04-08T07:11:22;31.83;;;22.13;;
52033;SDS011;38045;52.988;6.536;2023-04-08T07:13:48;30.13;;;21.48;;
52033;SDS011;38045;52.988;6.536;2023-04-08T07:16:13;29.60;;;22.35;;
52033;SDS011;38045;52.988;6.536;2023-04-08T07:18:39;25.70;;;19.90;;
52033;SDS011;38045;52.988;6.536;2023-04-08T07:21:06;25.52;;;17.85;;
52033;SDS011;38045;52.988;6.536;2023-04-08T07:23:32;29.23;;;21.02;;
52033;SDS011;38045;52.988;6.536;2023-04-08T07:26:04;23.65;;;19.88;;
52033;SDS011;38045;52.988;6.536;2023-04-08T07:28:30;27.73;;;20.27;;
52033;SDS011;38045;52.988;6.536;2023-04-08T07:30:56;31.55;;;22.55;;
52033;SDS011;38045;52.988;6.536;2023-04-08T07:33:32;25.42;;;19.90;;
52033;SDS011;38045;52.988;6.536;2023-04-08T07:35:57;26.33;;;20.00;;
52033;SDS011;38045;52.988;6.536;2023-04-08T07:38:23;23.13;;;18.60;;
52033;SDS011;38045;52.988;6.536;2023-04-08T07:40:49;23.35;;;19.45;;
52033;SDS011;38045;52.988;6.536;2023-04-08T07:43:14;22.08;;;18.08;;
52033;SDS011;38045;52.988;6.536;2023-04-08T07:45:40;22.40;;;16.92;;
52033;SDS011;38045;52.988;6.536;2023-04-08T07:48:05;22.30;;;18.70;;
52033;SDS011;38045;52.988;6.536;2023-04-08T07:50:31;26.27;;;19.55;;
52033;SDS011;38045;52.988;6.536;2023-04-08T07:52:57;20.52;;;17.52;;
52033;SDS011;38045;52.988;6.536;2023-04-08T07:55:22;23.25;;;18.80;;
52033;SDS011;38045;52.988;6.536;2023-04-08T07:57:48;22.23;;;17.60;;
52033;SDS011;38045;52.988;6.536;2023-04-08T08:00:14;22.02;;;18.33;;
52033;SDS011;38045;52.988;6.536;2023-04-08T08:02:45;24.20;;;18.77;;
52033;SDS011;38045;52.988;6.536;2023-04-08T08:05:12;20.15;;;16.55;;
52033;SDS011;38045;52.988;6.536;2023-04-08T08:07:37;21.95;;;18.08;;
52033;SDS011;38045;52.988;6.536;2023-04-08T08:10:03;21.13;;;17.17;;
52033;SDS011;38045;52.988;6.536;2023-04-08T08:12:29;17.85;;;15.45;;
52033;SDS011;38045;52.988;6.536;2023-04-08T08:14:55;17.85;;;15.30;;
52033;SDS011;38045;52.988;6.536;2023-04-08T08:17:23;17.83;;;15.93;;
52033;SDS011;38045;52.988;6.536;2023-04-08T08:19:49;21.15;;;17.02;;
52033;SDS011;38045;52.988;6.536;2023-04-08T08:22:15;18.60;;;16.15;;
52033;SDS011;38045;52.988;6.536;2023-04-08T08:24:40;21.40;;;17.90;;
52033;SDS011;38045;52.988;6.536;2023-04-08T08:27:08;18.17;;;16.00;;
52033;SDS011;38045;52.988;6.536;2023-04-08T08:29:35;20.65;;;18.38;;
52033;SDS011;38045;52.988;6.536;2023-04-08T08:32:01;19.60;;;17.50;;
52033;SDS011;38045;52.988;6.536;2023-04-08T08:34:27;22.98;;;16.83;;
52033;SDS011;38045;52.988;6.536;2023-04-08T08:36:53;22.08;;;17.50;;
52033;SDS011;38045;52.988;6.536;2023-04-08T08:39:19;18.63;;;16.30;;
52033;SDS011;38045;52.988;6.536;2023-04-08T08:41:45;20.15;;;15.93;;
52033;SDS011;38045;52.988;6.536;2023-04-08T08:44:11;23.27;;;17.90;;
52033;SDS011;38045;52.988;6.536;2023-04-08T08:46:41;20.10;;;16.70;;
52033;SDS011;38045;52.988;6.536;2023-04-08T08:49:08;30.27;;;19.92;;
52033;SDS011;38045;52.988;6.536;2023-04-08T08:51:34;20.98;;;17.38;;
52033;SDS011;38045;52.988;6.536;2023-04-08T08:54:03;21.00;;;17.73;;
52033;SDS011;38045;52.988;6.536;2023-04-08T08:56:29;27.17;;;18.83;;
52033;SDS011;38045;52.988;6.536;2023-04-08T08:58:56;27.92;;;18.52;;
52033;SDS011;38045;52.988;6.536;2023-04-08T09:01:35;24.30;;;18.33;;
52033;SDS011;38045;52.988;6.536;2023-04-08T09:04:09;30.02;;;21.67;;
52033;SDS011;38045;52.988;6.536;2023-04-08T09:06:37;24.42;;;20.42;;
52033;SDS011;38045;52.988;6.536;2023-04-08T09:09:03;30.52;;;20.77;;
52033;SDS011;38045;52.988;6.536;2023-04-08T09:11:39;22.73;;;18.23;;
52033;SDS011;38045;52.988;6.536;2023-04-08T09:14:24;22.20;;;18.38;;
52033;SDS011;38045;52.988;6.536;2023-04-08T09:16:50;20.90;;;17.10;;
52033;SDS011;38045;52.988;6.536;2023-04-08T09:19:16;22.45;;;17.08;;
52033;SDS011;38045;52.988;6.536;2023-04-08T09:21:42;22.58;;;18.38;;
52033;SDS011;38045;52.988;6.536;2023-04-08T09:24:09;20.42;;;17.35;;
52033;SDS011;38045;52.988;6.536;2023-04-08T09:26:51;19.40;;;15.93;;
52033;SDS011;38045;52.988;6.536;2023-04-08T09:29:16;18.23;;;15.80;;
52033;SDS011;38045;52.988;6.536;2023-04-08T09:31:42;22.85;;;17.15;;
52033;SDS011;38045;52.988;6.536;2023-04-08T09:34:12;15.93;;;13.25;;
52033;SDS011;38045;52.988;6.536;2023-04-08T09:36:43;19.33;;;14.27;;
52033;SDS011;38045;52.988;6.536;2023-04-08T09:39:09;15.25;;;13.63;;
52033;SDS011;38045;52.988;6.536;2023-04-08T09:41:37;17.20;;;14.68;;
52033;SDS011;38045;52.988;6.536;2023-04-08T09:44:07;17.00;;;15.18;;
52033;SDS011;38045;52.988;6.536;2023-04-08T09:52:10;16.83;;;15.02;;
52033;SDS011;38045;52.988;6.536;2023-04-08T09:54:47;21.92;;;15.85;;
52033;SDS011;38045;52.988;6.536;2023-04-08T09:57:28;17.80;;;14.83;;
52033;SDS011;38045;52.988;6.536;2023-04-08T10:00:08;20.73;;;15.60;;
52033;SDS011;38045;52.988;6.536;2023-04-08T10:03:01;19.35;;;15.93;;
52033;SDS011;38045;52.988;6.536;2023-04-08T10:05:43;18.30;;;14.68;;
52033;SDS011;38045;52.988;6.536;2023-04-08T10:08:10;18.67;;;16.73;;
52033;SDS011;38045;52.988;6.536;2023-04-08T10:10:38;20.30;;;15.90;;
52033;SDS011;38045;52.988;6.536;2023-04-08T10:13:05;18.73;;;15.85;;
52033;SDS011;38045;52.988;6.536;2023-04-08T10:15:35;21.30;;;18.33;;
52033;SDS011;38045;52.988;6.536;2023-04-08T10:23:02;16.73;;;13.88;;
52033;SDS011;38045;52.988;6.536;2023-04-08T10:25:39;17.67;;;15.38;;
52033;SDS011;38045;52.988;6.536;2023-04-08T10:30:48;19.95;;;15.60;;
52033;SDS011;38045;52.988;6.536;2023-04-08T10:33:20;19.58;;;16.20;;
52033;SDS011;38045;52.988;6.536;2023-04-08T10:36:09;16.95;;;15.25;;
52033;SDS011;38045;52.988;6.536;2023-04-08T10:38:36;14.48;;;11.43;;
52033;SDS011;38045;52.988;6.536;2023-04-08T10:41:02;15.63;;;13.50;;
52033;SDS011;38045;52.988;6.536;2023-04-08T10:43:34;14.95;;;12.52;;
52033;SDS011;38045;52.988;6.536;2023-04-08T10:46:02;13.52;;;12.13;;
52033;SDS011;38045;52.988;6.536;2023-04-08T10:48:28;15.68;;;11.50;;
52033;SDS011;38045;52.988;6.536;2023-04-08T10:50:58;16.45;;;14.73;;
52033;SDS011;38045;52.988;6.536;2023-04-08T10:53:34;15.32;;;12.93;;
52033;SDS011;38045;52.988;6.536;2023-04-08T10:58:48;13.80;;;12.40;;
52033;SDS011;38045;52.988;6.536;2023-04-08T11:01:14;15.10;;;12.00;;
52033;SDS011;38045;52.988;6.536;2023-04-08T11:03:40;15.13;;;12.13;;
52033;SDS011;38045;52.988;6.536;2023-04-08T11:06:07;13.38;;;11.68;;
52033;SDS011;38045;52.988;6.536;2023-04-08T11:08:33;13.57;;;11.25;;
52033;SDS011;38045;52.988;6.536;2023-04-08T11:11:00;12.02;;;10.75;;
52033;SDS011;38045;52.988;6.536;2023-04-08T11:13:26;11.55;;;9.65;;
52033;SDS011;38045;52.988;6.536;2023-04-08T11:15:53;11.60;;;10.38;;
52033;SDS011;38045;52.988;6.536;2023-04-08T11:18:24;12.15;;;10.63;;
52033;SDS011;38045;52.988;6.536;2023-04-08T11:20:51;11.77;;;9.82;;
52033;SDS011;38045;52.988;6.536;2023-04-08T11:23:18;11.85;;;10.43;;
52033;SDS011;38045;52.988;6.536;2023-04-08T11:25:44;16.67;;;12.48;;
52033;SDS011;38045;52.988;6.536;2023-04-08T11:28:11;10.73;;;9.38;;
52033;SDS011;38045;52.988;6.536;2023-04-08T11:30:38;11.43;;;10.15;;
52033;SDS011;38045;52.988;6.536;2023-04-08T11:33:05;11.40;;;9.73;;
52033;SDS011;38045;52.988;6.536;2023-04-08T11:35:31;13.82;;;10.65;;
52033;SDS011;38045;52.988;6.536;2023-04-08T11:37:57;12.65;;;9.43;;
52033;SDS011;38045;52.988;6.536;2023-04-08T11:40:23;15.40;;;11.63;;
52033;SDS011;38045;52.988;6.536;2023-04-08T11:42:50;13.00;;;11.27;;
52033;SDS011;38045;52.988;6.536;2023-04-08T11:45:17;15.77;;;11.13;;
52033;SDS011;38045;52.988;6.536;2023-04-08T11:47:45;15.07;;;10.80;;
52033;SDS011;38045;52.988;6.536;2023-04-08T11:50:12;17.45;;;11.85;;
52033;SDS011;38045;52.988;6.536;2023-04-08T11:52:50;15.13;;;12.18;;
52033;SDS011;38045;52.988;6.536;2023-04-08T11:57:48;13.98;;;11.10;;
52033;SDS011;38045;52.988;6.536;2023-04-08T12:00:15;16.70;;;12.02;;
52033;SDS011;38045;52.988;6.536;2023-04-08T12:02:40;15.05;;;12.73;;
52033;SDS011;38045;52.988;6.536;2023-04-08T12:05:06;14.48;;;12.90;;
52033;SDS011;38045;52.988;6.536;2023-04-08T12:07:32;14.15;;;12.07;;
52033;SDS011;38045;52.988;6.536;2023-04-08T12:09:57;20.60;;;13.38;;
52033;SDS011;38045;52.988;6.536;2023-04-08T12:12:23;20.95;;;13.60;;
52033;SDS011;38045;52.988;6.536;2023-04-08T12:14:49;17.08;;;12.38;;
52033;SDS011;38045;52.988;6.536;2023-04-08T12:17:15;14.80;;;11.90;;
52033;SDS011;38045;52.988;6.536;2023-04-08T12:19:40;20.40;;;15.73;;
52033;SDS011;38045;52.988;6.536;2023-04-08T12:22:06;18.20;;;13.80;;
52033;SDS011;38045;52.988;6.536;2023-04-08T12:24:32;17.67;;;13.77;;
52033;SDS011;38045;52.988;6.536;2023-04-08T12:26:57;18.13;;;13.88;;
52033;SDS011;38045;52.988;6.536;2023-04-08T12:29:23;18.67;;;14.15;;
52033;SDS011;38045;52.988;6.536;2023-04-08T12:31:48;23.05;;;16.35;;
52033;SDS011;38045;52.988;6.536;2023-04-08T12:34:14;24.13;;;15.52;;
52033;SDS011;38045;52.988;6.536;2023-04-08T12:36:43;20.23;;;14.52;;
52033;SDS011;38045;52.988;6.536;2023-04-08T12:39:10;21.92;;;14.18;;
52033;SDS011;38045;52.988;6.536;2023-04-08T12:41:35;24.38;;;17.58;;
52033;SDS011;38045;52.988;6.536;2023-04-08T12:44:01;26.85;;;18.50;;
52033;SDS011;38045;52.988;6.536;2023-04-08T12:46:26;26.60;;;19.50;;
52033;SDS011;38045;52.988;6.536;2023-04-08T12:48:52;25.65;;;19.80;;
52033;SDS011;38045;52.988;6.536;2023-04-08T12:51:18;28.85;;;19.95;;
52033;SDS011;38045;52.988;6.536;2023-04-08T12:53:44;29.42;;;19.45;;
52033;SDS011;38045;52.988;6.536;2023-04-08T12:56:09;24.25;;;18.67;;
52033;SDS011;38045;52.988;6.536;2023-04-08T12:58:35;25.35;;;18.35;;
52033;SDS011;38045;52.988;6.536;2023-04-08T13:01:01;29.00;;;20.45;;
52033;SDS011;38045;52.988;6.536;2023-04-08T13:03:26;26.40;;;19.08;;
52033;SDS011;38045;52.988;6.536;2023-04-08T13:05:55;26.20;;;18.33;;
52033;SDS011;38045;52.988;6.536;2023-04-08T13:08:23;24.05;;;18.50;;
52033;SDS011;38045;52.988;6.536;2023-04-08T13:10:49;25.60;;;18.48;;
52033;SDS011;38045;52.988;6.536;2023-04-08T13:13:14;24.85;;;18.05;;
52033;SDS011;38045;52.988;6.536;2023-04-08T13:15:40;27.70;;;18.13;;
52033;SDS011;38045;52.988;6.536;2023-04-08T13:18:06;24.83;;;18.40;;
52033;SDS011;38045;52.988;6.536;2023-04-08T13:20:32;26.73;;;20.10;;
52033;SDS011;38045;52.988;6.536;2023-04-08T13:22:57;28.95;;;19.85;;
52033;SDS011;38045;52.988;6.536;2023-04-08T13:25:24;24.30;;;17.70;;
52033;SDS011;38045;52.988;6.536;2023-04-08T13:27:50;24.05;;;18.30;;
52033;SDS011;38045;52.988;6.536;2023-04-08T13:30:15;26.73;;;19.17;;
52033;SDS011;38045;52.988;6.536;2023-04-08T13:32:41;23.13;;;18.80;;
52033;SDS011;38045;52.988;6.536;2023-04-08T13:35:07;31.27;;;22.58;;
52033;SDS011;38045;52.988;6.536;2023-04-08T13:37:33;29.98;;;21.60;;
52033;SDS011;38045;52.988;6.536;2023-04-08T13:39:58;28.42;;;20.63;;
52033;SDS011;38045;52.988;6.536;2023-04-08T13:42:24;32.45;;;20.55;;
52033;SDS011;38045;52.988;6.536;2023-04-08T13:44:50;32.50;;;20.52;;
52033;SDS011;38045;52.988;6.536;2023-04-08T13:47:16;32.85;;;22.75;;
52033;SDS011;38045;52.988;6.536;2023-04-08T13:49:42;31.20;;;21.73;;
52033;SDS011;38045;52.988;6.536;2023-04-08T13:52:07;32.50;;;22.13;;
52033;SDS011;38045;52.988;6.536;2023-04-08T13:54:33;33.97;;;22.75;;
52033;SDS011;38045;52.988;6.536;2023-04-08T13:56:59;28.35;;;20.33;;
52033;SDS011;38045;52.988;6.536;2023-04-08T13:59:25;30.05;;;22.95;;
52033;SDS011;38045;52.988;6.536;2023-04-08T14:01:51;26.88;;;19.60;;
52033;SDS011;38045;52.988;6.536;2023-04-08T14:04:21;27.83;;;19.50;;
52033;SDS011;38045;52.988;6.536;2023-04-08T14:06:47;31.00;;;20.42;;
52033;SDS011;38045;52.988;6.536;2023-04-08T14:09:15;30.83;;;21.88;;
52033;SDS011;38045;52.988;6.536;2023-04-08T14:11:41;28.77;;;22.77;;
52033;SDS011;38045;52.988;6.536;2023-04-08T14:14:07;28.58;;;20.48;;
52033;SDS011;38045;52.988;6.536;2023-04-08T14:16:33;27.20;;;20.52;;
52033;SDS011;38045;52.988;6.536;2023-04-08T14:18:59;26.08;;;19.02;;
52033;SDS011;38045;52.988;6.536;2023-04-08T14:21:25;30.38;;;21.13;;
52033;SDS011;38045;52.988;6.536;2023-04-08T14:23:51;28.33;;;20.48;;
52033;SDS011;38045;52.988;6.536;2023-04-08T14:26:17;28.73;;;21.02;;
52033;SDS011;38045;52.988;6.536;2023-04-08T14:28:42;28.15;;;20.80;;
52033;SDS011;38045;52.988;6.536;2023-04-08T14:31:08;27.38;;;20.45;;
52033;SDS011;38045;52.988;6.536;2023-04-08T14:33:34;29.58;;;23.75;;
52033;SDS011;38045;52.988;6.536;2023-04-08T14:36:00;31.88;;;21.65;;
52033;SDS011;38045;52.988;6.536;2023-04-08T14:38:26;34.60;;;22.77;;
52033;SDS011;38045;52.988;6.536;2023-04-08T14:40:51;28.95;;;22.00;;
52033;SDS011;38045;52.988;6.536;2023-04-08T14:43:18;25.75;;;20.52;;
52033;SDS011;38045;52.988;6.536;2023-04-08T14:45:44;22.80;;;19.33;;